Time;durP1;ratioP1;P1;durP2;ratioP2;P2;SDS_P1;SDS_P2;PMS_P1;PMS_P2;Temp;Humidity;BMP_temperature;BMP_pressure;BME280_temperature;BME280_humidity;BME280_pressure;Samples;Min_cycle;Max_cycle;Signal;HPM_P1;HPM_P2
2023/12/09 00:01:17;;;;;;;65.10;25.23;;;;;;;-0.33;100.00;101074.38;5035515;28;20215;-40
2023/12/09 00:03:42;;;;;;;58.72;23.20;;;;;;;-0.34;100.00;101072.63;5036111;28;20198;-41
2023/12/09 00:06:08;;;;;;;63.22;24.40;;;;;;;-0.36;100.00;101069.09;5039388;28;20227;-40
2023/12/09 00:08:34;;;;;;;70.55;26.13;;;;;;;-0.38;100.00;101069.06;5038210;28;20199;-39
2023/12/09 00:10:59;;;;;;;68.85;26.48;;;;;;;-0.40;100.00;101062.91;5040190;28;20282;-39
2023/12/09 00:13:25;;;;;;;58.80;22.38;;;;;;;-0.33;100.00;101053.31;5039192;28;20172;-41
2023/12/09 00:15:50;;;;;;;65.72;26.15;;;;;;;-0.33;100.00;101064.75;5044983;28;20179;-41
2023/12/09 00:18:16;;;;;;;68.25;28.33;;;;;;;-0.37;100.00;101062.03;5037995;28;20187;-40
2023/12/09 00:20:41;;;;;;;75.07;29.45;;;;;;;-0.37;100.00;101051.50;5036841;28;20204;-40
2023/12/09 00:23:07;;;;;;;73.13;26.98;;;;;;;-0.35;100.00;101062.94;5041822;28;20203;-39
2023/12/09 00:25:33;;;;;;;58.92;23.38;;;;;;;-0.31;100.00;101077.91;5040225;28;20190;-40
2023/12/09 00:27:59;;;;;;;73.63;28.45;;;;;;;-0.34;100.00;101060.34;5038910;28;20199;-40
2023/12/09 00:30:24;;;;;;;81.00;30.25;;;;;;;-0.33;100.00;101059.47;5041043;28;20599;-40
2023/12/09 00:32:50;;;;;;;84.15;30.13;;;;;;;-0.34;100.00;101043.66;5040237;28;20673;-39
2023/12/09 00:35:15;;;;;;;74.82;30.45;;;;;;;-0.36;100.00;101048.03;5044421;28;20187;-40
2023/12/09 00:37:41;;;;;;;78.47;31.20;;;;;;;-0.32;100.00;101045.44;5039092;28;20624;-38
2023/12/09 00:40:07;;;;;;;78.25;30.58;;;;;;;-0.31;100.00;101044.56;5036656;28;20202;-41
2023/12/09 00:42:32;;;;;;;70.28;25.48;;;;;;;-0.31;100.00;101036.66;5043403;28;20189;-38
2023/12/09 00:44:58;;;;;;;77.95;30.92;;;;;;;-0.36;100.00;101051.53;5041704;28;20245;-40
2023/12/09 00:47:23;;;;;;;76.70;29.52;;;;;;;-0.35;100.00;101039.25;5040870;28;20278;-40
2023/12/09 00:49:49;;;;;;;79.25;30.13;;;;;;;-0.35;100.00;101039.25;5043422;28;20209;-38
2023/12/09 00:52:14;;;;;;;86.55;32.13;;;;;;;-0.36;100.00;101045.41;5041018;28;20184;-39
2023/12/09 00:54:40;;;;;;;82.78;29.65;;;;;;;-0.36;100.00;101046.28;5043518;28;20267;-39
2023/12/09 00:57:05;;;;;;;80.18;31.20;;;;;;;-0.31;100.00;101052.44;5040260;28;20642;-41
2023/12/09 00:59:31;;;;;;;83.60;31.63;;;;;;;-0.30;100.00;101070.03;5035233;28;20219;-39
2023/12/09 01:01:56;;;;;;;86.88;32.33;;;;;;;-0.29;100.00;101063.00;5040010;28;20229;-40
2023/12/09 01:04:22;;;;;;;81.30;30.63;;;;;;;-0.30;100.00;101066.53;5042962;28;20262;-39
2023/12/09 01:06:47;;;;;;;84.85;31.58;;;;;;;-0.28;100.00;101064.78;5042189;28;20688;-39
2023/12/09 01:09:15;;;;;;;87.82;30.60;;;;;;;-0.28;100.00;101051.63;5042474;28;20200;-41
2023/12/09 01:11:41;;;;;;;90.28;32.13;;;;;;;-0.32;100.00;101060.34;5039614;28;20591;-42
2023/12/09 01:14:07;;;;;;;82.03;30.92;;;;;;;-0.31;100.00;101047.19;5041610;28;20188;-42
2023/12/09 01:16:32;;;;;;;86.15;30.10;;;;;;;-0.32;100.00;101058.59;5040844;28;20290;-40
2023/12/09 01:18:58;;;;;;;101.22;32.45;;;;;;;-0.27;100.00;101058.63;5036577;28;20566;-42
2023/12/09 01:21:23;;;;;;;86.53;31.98;;;;;;;-0.31;100.00;101054.22;5043552;28;20290;-40
2023/12/09 01:23:49;;;;;;;93.68;31.77;;;;;;;-0.28;100.00;101047.22;5042974;28;20215;-39
2023/12/09 01:26:14;;;;;;;91.05;30.67;;;;;;;-0.27;100.00;101043.72;5043752;28;20193;-41
2023/12/09 01:28:40;;;;;;;84.05;29.55;;;;;;;-0.28;100.00;101056.88;5039490;28;20191;-42
2023/12/09 01:31:05;;;;;;;91.82;31.02;;;;;;;-0.29;100.00;101055.97;5040417;28;20200;-40
2023/12/09 01:33:32;;;;;;;90.32;32.03;;;;;;;-0.28;100.00;101059.53;5040174;28;20186;-42
2023/12/09 01:35:57;;;;;;;88.30;32.35;;;;;;;-0.25;100.00;101060.41;5043340;28;20267;-41
2023/12/09 01:38:23;;;;;;;94.82;32.20;;;;;;;-0.27;100.00;101063.91;5041104;28;20216;-40
2023/12/09 01:40:53;;;;;;;99.50;31.30;;;;;;;-0.25;100.00;101043.75;5039448;28;20751;-40
2023/12/09 01:43:20;;;;;;;103.10;30.98;;;;;;;-0.25;100.00;101043.75;5040945;28;20271;-39
2023/12/09 01:45:46;;;;;;;102.65;31.27;;;;;;;-0.28;100.00;101052.50;5043044;28;20253;-39
2023/12/09 01:48:13;;;;;;;108.22;32.05;;;;;;;-0.27;100.00;101037.56;5039999;28;20555;-40
2023/12/09 01:50:39;;;;;;;107.85;31.65;;;;;;;-0.30;100.00;101038.44;5033616;28;20225;-40
2023/12/09 01:53:05;;;;;;;103.40;31.25;;;;;;;-0.26;100.00;101034.09;5040701;28;20194;-40
2023/12/09 01:55:32;;;;;;;121.00;32.42;;;;;;;-0.27;100.00;101038.44;5042107;28;20535;-40
2023/12/09 01:57:57;;;;;;;99.68;31.30;;;;;;;-0.25;100.00;101034.09;5038031;28;20199;-40
2023/12/09 02:00:23;;;;;;;108.10;33.17;;;;;;;-0.26;100.00;101023.56;5038140;28;20202;-40
2023/12/09 02:02:49;;;;;;;93.35;30.90;;;;;;;-0.25;100.00;101006.88;5043130;28;20186;-41
2023/12/09 02:05:14;;;;;;;92.07;29.77;;;;;;;-0.24;100.00;101013.91;5045291;28;20701;-40
2023/12/09 02:07:40;;;;;;;107.40;31.02;;;;;;;-0.24;100.00;101020.06;5045958;28;20475;-39
2023/12/09 02:10:06;;;;;;;113.35;31.05;;;;;;;-0.23;100.00;101019.19;5040904;28;20558;-41
2023/12/09 02:12:40;;;;;;;92.03;29.05;;;;;;;-0.18;100.00;101020.97;5036560;28;20180;-39
2023/12/09 02:15:25;;;;;;;105.38;31.00;;;;;;;-0.19;100.00;101024.50;5043358;28;20263;-39
2023/12/09 02:17:57;;;;;;;101.63;31.75;;;;;;;-0.21;100.00;101027.09;5038772;28;20311;-40
2023/12/09 02:20:23;;;;;;;104.65;32.10;;;;;;;-0.19;100.00;101027.13;5035407;28;20204;-41
2023/12/09 02:22:48;;;;;;;100.32;30.65;;;;;;;-0.21;100.00;101027.97;5039650;28;20241;-38
2023/12/09 02:25:14;;;;;;;95.50;31.40;;;;;;;-0.18;100.00;101032.38;5043103;28;20594;-39
2023/12/09 02:27:52;;;;;;;99.85;31.42;;;;;;;-0.11;100.00;101026.34;5032533;28;20198;-40
2023/12/09 02:30:36;;;;;;;115.65;33.58;;;;;;;-0.15;100.00;101021.00;5050175;28;20215;-42
2023/12/09 02:33:05;;;;;;;109.38;32.00;;;;;;;-0.14;100.00;101025.41;5038996;28;20527;-38
2023/12/09 02:35:37;;;;;;;118.43;32.40;;;;;;;-0.14;100.00;101038.56;5041361;28;20250;-39
2023/12/09 02:38:04;;;;;;;122.93;33.13;;;;;;;-0.13;100.00;101032.44;5037127;28;20549;-40
2023/12/09 02:40:30;;;;;;;112.70;31.27;;;;;;;-0.12;100.00;101021.91;5035105;28;20195;-39
2023/12/09 02:42:56;;;;;;;124.90;32.88;;;;;;;-0.13;100.00;101004.38;5039947;28;20186;-40
2023/12/09 02:45:22;;;;;;;90.35;29.45;;;;;;;-0.09;100.00;101003.53;5044578;28;20634;-39
2023/12/09 02:47:47;;;;;;;121.18;31.77;;;;;;;-0.14;100.00;101002.59;5040283;28;20176;-42
2023/12/09 02:50:14;;;;;;;98.78;29.92;;;;;;;-0.07;100.00;101014.94;5038558;28;20199;-42
2023/12/09 02:52:40;;;;;;;116.47;31.02;;;;;;;-0.05;100.00;101005.28;5035708;28;20187;-41
2023/12/09 02:55:07;;;;;;;96.25;28.58;;;;;;;0.01;100.00;101012.38;5041423;28;20171;-39
2023/12/09 02:57:32;;;;;;;111.30;31.25;;;;;;;-0.02;100.00;100992.16;5034621;28;20544;-40
2023/12/09 02:59:58;;;;;;;101.82;30.40;;;;;;;0.01;100.00;101006.22;5035067;28;20199;-40
2023/12/09 03:02:24;;;;;;;112.43;30.92;;;;;;;0.03;100.00;100993.94;5032451;28;20208;-42
2023/12/09 03:04:49;;;;;;;113.03;30.30;;;;;;;0.01;100.00;100995.69;5034519;28;20573;-41
2023/12/09 03:07:15;;;;;;;113.65;29.08;;;;;;;-0.01;100.00;100993.91;5038580;28;20252;-42
2023/12/09 03:09:40;;;;;;;101.63;30.25;;;;;;;0.03;100.00;100992.19;5037088;28;20664;-41
2023/12/09 03:12:06;;;;;;;128.35;31.77;;;;;;;0.03;100.00;100986.94;5033149;28;20235;-40
2023/12/09 03:14:31;;;;;;;111.57;30.52;;;;;;;0.04;100.00;100996.56;5040231;28;20171;-42
2023/12/09 03:16:57;;;;;;;109.45;30.27;;;;;;;0.04;100.00;100986.03;5036548;28;20200;-40
2023/12/09 03:19:22;;;;;;;125.90;32.58;;;;;;;0.06;100.00;100983.44;5034112;28;20190;-42
2023/12/09 03:21:48;;;;;;;115.00;30.17;;;;;;;0.04;100.00;100972.00;5035809;28;20697;-42
2023/12/09 03:24:13;;;;;;;132.35;32.05;;;;;;;0.05;100.00;100976.41;5040722;28;20753;-40
2023/12/09 03:26:39;;;;;;;124.57;30.77;;;;;;;0.08;100.00;100984.31;5034355;28;20674;-40
2023/12/09 03:29:04;;;;;;;128.90;29.65;;;;;;;0.08;100.00;100984.31;5039858;28;20249;-38
2023/12/09 03:31:30;;;;;;;126.68;31.70;;;;;;;0.10;100.00;100980.81;5032897;28;20191;-39
2023/12/09 03:33:55;;;;;;;115.38;29.73;;;;;;;0.11;100.00;100989.59;5036146;28;20175;-40
2023/12/09 03:36:20;;;;;;;97.03;29.52;;;;;;;0.14;100.00;100995.78;5045110;28;20179;-41
2023/12/09 03:38:46;;;;;;;123.80;30.58;;;;;;;0.15;100.00;100991.38;5033523;28;20668;-41
2023/12/09 03:41:11;;;;;;;109.15;28.05;;;;;;;0.18;100.00;100988.78;5039512;28;20674;-41
2023/12/09 03:43:37;;;;;;;104.38;26.45;;;;;;;0.23;100.00;100992.31;5038899;28;20633;-41
2023/12/09 03:46:03;;;;;;;102.55;26.63;;;;;;;0.24;100.00;100996.75;5040417;28;20267;-42
2023/12/09 03:48:29;;;;;;;103.32;28.00;;;;;;;0.26;100.00;100984.44;5041912;28;20172;-40
2023/12/09 03:50:55;;;;;;;120.18;29.33;;;;;;;0.25;100.00;100990.59;5038973;28;20192;-40
2023/12/09 03:53:21;;;;;;;119.70;29.98;;;;;;;0.23;100.00;100980.91;5040709;28;20187;-41
2023/12/09 03:55:48;;;;;;;113.03;28.45;;;;;;;0.21;100.00;100986.16;5040058;28;20203;-41
2023/12/09 03:58:13;;;;;;;109.10;27.60;;;;;;;0.23;100.00;100976.53;5037885;28;20199;-42
2023/12/09 04:00:39;;;;;;;137.27;28.73;;;;;;;0.21;100.00;100983.53;5043712;28;20195;-42
2023/12/09 04:03:05;;;;;;;143.60;29.98;;;;;;;0.28;100.00;100977.41;5042036;28;20583;-41
2023/12/09 04:05:31;;;;;;;130.70;27.95;;;;;;;0.23;100.00;100967.75;5038401;28;20184;-42
2023/12/09 04:07:56;;;;;;;135.13;28.05;;;;;;;0.24;100.00;100969.50;5040472;28;20172;-39
2023/12/09 04:10:22;;;;;;;120.97;29.42;;;;;;;0.25;100.00;100977.41;5038604;28;20192;-40
2023/12/09 04:12:47;;;;;;;118.68;29.48;;;;;;;0.31;100.00;100964.28;5036845;28;20183;-40
2023/12/09 04:15:13;;;;;;;132.57;28.30;;;;;;;0.39;100.00;100959.94;5040292;28;20661;-40
2023/12/09 04:17:38;;;;;;;131.25;28.08;;;;;;;0.37;100.00;100969.59;5038838;28;20167;-39
2023/12/09 04:20:08;;;;;;;126.07;28.08;;;;;;;0.35;100.00;100967.78;5044587;28;20248;-39
2023/12/09 04:22:36;;;;;;;140.10;30.27;;;;;;;0.30;100.00;100973.03;5042092;28;20584;-42
2023/12/09 04:25:04;;;;;;;152.90;28.63;;;;;;;0.29;100.00;100973.94;5036571;28;20221;-39
2023/12/09 04:27:31;;;;;;;125.65;26.35;;;;;;;0.33;100.00;100975.72;5038903;28;20278;-40
2023/12/09 04:29:57;;;;;;;136.35;28.33;;;;;;;0.40;100.00;100969.59;5040032;28;20176;-42
2023/12/09 04:32:23;;;;;;;140.57;26.70;;;;;;;0.33;100.00;100966.94;5038654;28;20314;-41
2023/12/09 04:34:49;;;;;;;142.13;28.42;;;;;;;0.34;100.00;100977.47;5041565;28;20255;-41
2023/12/09 04:37:14;;;;;;;123.65;29.23;;;;;;;0.33;100.00;100973.06;5042359;28;20285;-41
2023/12/09 04:39:40;;;;;;;107.45;26.23;;;;;;;0.37;100.00;100974.88;5040991;28;20198;-42
2023/12/09 04:42:05;;;;;;;147.48;28.65;;;;;;;0.40;100.00;100955.53;5043479;28;20219;-42
2023/12/09 04:44:31;;;;;;;132.55;28.60;;;;;;;0.45;100.00;100964.34;5037742;28;20194;-41
2023/12/09 04:46:56;;;;;;;146.35;28.85;;;;;;;0.53;100.00;100956.50;5039435;28;20191;-40
2023/12/09 04:49:22;;;;;;;144.63;27.80;;;;;;;0.50;100.00;100961.72;5039502;28;20239;-39
2023/12/09 04:51:47;;;;;;;119.22;26.42;;;;;;;0.47;100.00;100957.31;5038703;28;20199;-41
2023/12/09 04:54:13;;;;;;;147.85;27.40;;;;;;;0.47;100.00;100953.81;5043332;28;20654;-41
2023/12/09 04:56:38;;;;;;;164.05;29.35;;;;;;;0.45;100.00;100955.56;5042102;28;20167;-40
2023/12/09 04:59:04;;;;;;;150.82;28.52;;;;;;;0.49;100.00;100949.44;5042448;28;20197;-40
2023/12/09 05:01:29;;;;;;;163.85;28.88;;;;;;;0.51;100.00;100951.19;5043017;28;20700;-42
2023/12/09 05:03:55;;;;;;;143.73;28.63;;;;;;;0.52;100.00;100946.81;5045805;22;20219;-39
2023/12/09 05:06:20;;;;;;;168.55;29.10;;;;;;;0.56;100.00;100949.47;5013012;28;20592;-41
2023/12/09 05:08:46;;;;;;;145.98;27.88;;;;;;;0.56;100.00;100941.56;5012654;28;20311;-41
2023/12/09 05:11:11;;;;;;;155.70;28.25;;;;;;;0.54;100.00;100940.66;5026327;28;20204;-37
2023/12/09 05:13:37;;;;;;;172.30;28.10;;;;;;;0.62;100.00;100940.72;5032860;28;20171;-39
2023/12/09 05:16:03;;;;;;;157.82;28.23;;;;;;;0.58;100.00;100942.44;5027126;28;20192;-42
2023/12/09 05:18:29;;;;;;;172.65;29.50;;;;;;;0.61;100.00;100944.19;5031480;28;20211;-39
2023/12/09 05:20:55;;;;;;;169.15;30.40;;;;;;;0.61;100.00;100938.94;5025850;28;20199;-37
2023/12/09 05:23:21;;;;;;;175.07;29.60;;;;;;;0.62;100.00;100932.81;5032840;28;20179;-38
2023/12/09 05:25:49;;;;;;;185.80;28.83;;;;;;;0.59;100.00;100938.03;5036475;28;20249;-39
2023/12/09 05:28:15;;;;;;;157.48;29.50;;;;;;;0.66;100.00;100947.75;5030770;28;20206;-38
2023/12/09 05:30:41;;;;;;;189.07;29.95;;;;;;;0.66;100.00;100947.75;5022491;28;20236;-38
2023/12/09 05:33:07;;;;;;;178.52;30.25;;;;;;;0.70;100.00;100943.34;5029629;28;20283;-38
2023/12/09 05:35:33;;;;;;;201.52;31.42;;;;;;;0.72;100.00;100941.63;5032527;28;20262;-40
2023/12/09 05:37:59;;;;;;;177.85;28.27;;;;;;;0.76;100.00;100946.03;5031307;28;20187;-38
2023/12/09 05:40:24;;;;;;;213.20;31.77;;;;;;;0.74;100.00;100950.41;5030081;28;20303;-40
2023/12/09 05:42:50;;;;;;;169.32;29.92;;;;;;;0.76;100.00;100952.19;5018685;28;20180;-41
2023/12/09 05:45:15;;;;;;;105.13;26.85;;;;;;;0.77;100.00;100956.59;5028387;28;20210;-38
2023/12/09 05:47:41;;;;;;;192.02;30.77;;;;;;;0.79;100.00;100941.66;5028437;28;20642;-39
2023/12/09 05:50:08;;;;;;;194.15;30.50;;;;;;;0.84;100.00;100948.72;5030862;28;20184;-38
2023/12/09 05:52:33;;;;;;;197.77;32.08;;;;;;;0.83;100.00;100947.81;5013567;28;20591;-40
2023/12/09 05:54:59;;;;;;;162.82;29.85;;;;;;;0.85;100.00;100955.72;5030357;28;20164;-38
2023/12/09 05:57:24;;;;;;;181.55;29.23;;;;;;;0.86;100.00;100937.28;5025528;28;20561;-37
2023/12/09 05:59:50;;;;;;;190.07;30.58;;;;;;;0.84;100.00;100940.78;5028563;28;20231;-41
2023/12/09 06:02:16;;;;;;;176.05;29.90;;;;;;;0.93;100.00;100933.78;5008408;28;20626;-40
2023/12/09 06:04:42;;;;;;;149.65;29.05;;;;;;;0.88;100.00;100939.94;5030042;28;20282;-42
2023/12/09 06:07:07;;;;;;;205.30;30.90;;;;;;;0.85;100.00;100939.91;4996537;28;20275;-39
2023/12/09 06:09:33;;;;;;;187.68;29.65;;;;;;;0.87;100.00;100943.44;5025577;28;20187;-39
2023/12/09 06:11:58;;;;;;;242.25;32.10;;;;;;;0.86;100.00;100941.69;5025819;28;20262;-40
2023/12/09 06:14:24;;;;;;;167.98;29.80;;;;;;;0.81;100.00;100928.50;5023577;28;20203;-40
2023/12/09 06:16:49;;;;;;;213.18;31.20;;;;;;;0.81;100.00;100941.69;5019093;28;20176;-41
2023/12/09 06:19:15;;;;;;;209.93;30.63;;;;;;;0.81;100.00;100944.31;5022905;28;20194;-41
2023/12/09 06:21:40;;;;;;;220.25;30.42;;;;;;;0.81;100.00;100941.69;5019384;28;20211;-39
2023/12/09 06:24:06;;;;;;;153.85;29.90;;;;;;;0.82;100.00;100946.94;5022981;28;20192;-41
2023/12/09 06:26:31;;;;;;;239.25;31.83;;;;;;;0.89;100.00;100939.91;5022415;28;20172;-41
2023/12/09 06:28:56;;;;;;;256.33;34.15;;;;;;;0.89;100.00;100939.91;5023028;28;20632;-40
2023/12/09 06:31:22;;;;;;;271.70;32.95;;;;;;;0.94;100.00;100942.56;5022882;28;20192;-40
2023/12/09 06:33:47;;;;;;;258.30;34.33;;;;;;;0.97;100.00;100932.03;5021422;28;20598;-41
2023/12/09 06:36:13;;;;;;;267.85;33.28;;;;;;;0.94;100.00;100932.00;5025098;28;20167;-40
2023/12/09 06:38:39;;;;;;;196.90;30.80;;;;;;;0.93;100.00;100939.06;5001426;28;20188;-40
2023/12/09 06:41:06;;;;;;;263.27;32.85;;;;;;;0.90;100.00;100943.47;5025926;28;20226;-41
2023/12/09 06:43:31;;;;;;;234.32;33.60;;;;;;;0.94;100.00;100943.47;5022867;28;20553;-41
2023/12/09 06:45:59;;;;;;;184.52;31.92;;;;;;;1.02;100.00;100947.00;5019721;28;20293;-41
2023/12/09 06:48:26;;;;;;;216.70;32.67;;;;;;;1.03;100.00;100943.50;5020723;28;20184;-41
2023/12/09 06:50:51;;;;;;;227.27;32.60;;;;;;;1.05;100.00;100950.50;5024606;28;20194;-40
2023/12/09 06:53:17;;;;;;;204.07;31.30;;;;;;;1.05;100.00;100932.03;5019946;28;20607;-42
2023/12/09 06:55:42;;;;;;;217.63;33.25;;;;;;;1.09;100.00;100947.88;5016769;28;20257;-41
2023/12/09 06:58:08;;;;;;;237.90;32.38;;;;;;;1.09;100.00;100939.97;5025271;28;20179;-40
2023/12/09 07:00:33;;;;;;;191.30;31.33;;;;;;;1.09;100.00;100939.97;5023240;28;20569;-42
2023/12/09 07:02:59;;;;;;;232.32;33.80;;;;;;;1.05;100.00;100930.31;5020641;28;20279;-41
2023/12/09 07:05:26;;;;;;;188.65;33.30;;;;;;;1.16;100.00;100923.28;5021445;28;20184;-39
2023/12/09 07:07:51;;;;;;;187.10;33.28;;;;;;;1.18;100.00;100929.44;5016940;28;20211;-40
2023/12/09 07:10:17;;;;;;;204.57;34.13;;;;;;;1.30;100.00;100922.44;5024074;28;20192;-42
2023/12/09 07:12:45;;;;;;;257.33;34.78;;;;;;;1.24;100.00;100924.16;5023430;28;20183;-41
2023/12/09 07:15:12;;;;;;;148.48;30.70;;;;;;;1.26;100.00;100928.56;5020918;28;20184;-40
2023/12/09 07:17:37;;;;;;;188.10;32.45;;;;;;;1.37;100.00;100929.47;5018522;28;20240;-40
2023/12/09 07:20:05;;;;;;;221.05;34.13;;;;;;;1.45;100.00;100927.72;5024242;28;20556;-41
2023/12/09 07:22:31;;;;;;;180.52;33.22;;;;;;;1.42;100.00;100927.69;5006647;28;20195;-41
2023/12/09 07:24:57;;;;;;;203.35;34.95;;;;;;;1.42;100.00;100923.31;5023862;28;20195;-40
2023/12/09 07:27:22;;;;;;;209.13;33.58;;;;;;;1.38;100.00;100926.84;5014528;28;20168;-42
2023/12/09 07:29:47;;;;;;;214.32;34.58;;;;;;;1.36;100.00;100920.69;5025153;28;20621;-41
2023/12/09 07:32:13;;;;;;;209.45;34.05;;;;;;;1.35;100.00;100924.19;5020045;28;20175;-40
2023/12/09 07:34:39;;;;;;;206.60;34.30;;;;;;;1.35;100.00;100924.19;5021489;28;20176;-42
2023/12/09 07:37:05;;;;;;;224.40;34.65;;;;;;;1.30;100.00;100922.44;5001237;28;20195;-42
2023/12/09 07:39:30;;;;;;;265.20;36.03;;;;;;;1.22;100.00;100919.75;5025615;28;20180;-43
2023/12/09 07:41:56;;;;;;;223.25;33.78;;;;;;;1.30;100.00;100917.16;5014569;28;20250;-41
2023/12/09 07:44:21;;;;;;;218.32;34.97;;;;;;;1.28;100.00;100926.81;5023419;28;20237;-41
2023/12/09 07:46:47;;;;;;;206.85;33.08;;;;;;;1.22;100.00;100911.84;5020754;28;20172;-42
2023/12/09 07:49:12;;;;;;;191.52;33.03;;;;;;;1.33;100.00;100922.41;5017387;28;20263;-41
2023/12/09 07:51:39;;;;;;;222.82;32.60;;;;;;;1.36;100.00;100919.81;5010077;28;20211;-40
2023/12/09 07:54:05;;;;;;;230.45;35.22;;;;;;;1.37;100.00;100930.34;5021148;28;20242;-40
2023/12/09 07:56:30;;;;;;;191.65;33.72;;;;;;;1.37;100.00;100929.47;5018806;28;20263;-40
2023/12/09 07:58:56;;;;;;;185.05;32.20;;;;;;;1.33;100.00;100925.94;5023851;28;20294;-43
2023/12/09 08:01:22;;;;;;;175.90;31.60;;;;;;;1.35;100.00;100931.22;5022820;28;20212;-41
2023/12/09 08:03:48;;;;;;;218.68;30.65;;;;;;;1.30;100.00;100949.69;5017475;28;20194;-41
2023/12/09 08:06:13;;;;;;;161.82;29.77;;;;;;;1.39;100.00;100933.00;5018328;28;20270;-42
2023/12/09 08:08:39;;;;;;;174.15;30.13;;;;;;;1.39;100.00;100943.56;5023287;28;20667;-42
2023/12/09 08:11:05;;;;;;;216.63;30.80;;;;;;;1.37;100.00;100938.25;5020280;28;20215;-41
2023/12/09 08:13:31;;;;;;;217.75;31.90;;;;;;;1.37;100.00;100942.66;5009340;28;20184;-41
2023/12/09 08:15:57;;;;;;;201.70;29.35;;;;;;;1.37;100.00;100945.31;5015860;28;20188;-41
2023/12/09 08:18:23;;;;;;;193.75;30.50;;;;;;;1.45;100.00;100943.56;5020048;28;20177;-43
2023/12/09 08:20:48;;;;;;;218.30;31.27;;;;;;;1.46;100.00;100937.38;5001703;28;20215;-41
2023/12/09 08:23:14;;;;;;;180.05;29.23;;;;;;;1.50;100.00;100930.38;5023356;28;20180;-38
2023/12/09 08:25:42;;;;;;;169.52;30.05;;;;;;;1.46;100.00;100933.88;5018288;28;20212;-42
2023/12/09 08:28:09;;;;;;;183.23;30.77;;;;;;;1.42;100.00;100944.44;5019747;28;20599;-40
2023/12/09 08:30:35;;;;;;;199.32;30.55;;;;;;;1.44;100.00;100926.84;5017311;28;20196;-40
2023/12/09 08:33:00;;;;;;;205.35;29.83;;;;;;;1.47;100.00;100928.59;5021005;28;20185;-42
2023/12/09 08:35:26;;;;;;;217.13;31.65;;;;;;;1.51;100.00;100929.47;5021261;28;20625;-40
2023/12/09 08:37:51;;;;;;;215.18;31.65;;;;;;;1.47;100.00;100935.66;5004385;28;20275;-42
2023/12/09 08:40:17;;;;;;;217.10;29.40;;;;;;;1.48;100.00;100924.19;5011802;28;20231;-40
2023/12/09 08:42:45;;;;;;;243.25;32.35;;;;;;;1.43;100.00;100926.84;5021137;28;20553;-42
2023/12/09 08:45:13;;;;;;;254.02;30.77;;;;;;;1.48;100.00;100934.75;5022914;28;20222;-42
2023/12/09 08:47:39;;;;;;;237.52;31.20;;;;;;;1.57;100.00;100926.84;5017938;28;20182;-41
2023/12/09 08:50:05;;;;;;;178.07;29.38;;;;;;;1.57;100.00;100926.84;5016035;28;20305;-41
2023/12/09 08:52:32;;;;;;;157.40;29.80;;;;;;;1.70;100.00;100922.44;5002041;28;20756;-43
2023/12/09 08:54:58;;;;;;;167.90;29.95;;;;;;;1.65;100.00;100920.66;5012198;28;20184;-40
2023/12/09 08:57:24;;;;;;;210.18;30.85;;;;;;;1.77;100.00;100914.53;5022060;28;20238;-40
2023/12/09 08:59:50;;;;;;;162.48;29.42;;;;;;;1.76;100.00;100915.38;5023932;28;20184;-42
2023/12/09 09:02:16;;;;;;;199.93;31.27;;;;;;;1.79;100.00;100928.63;5017932;28;20218;-42
2023/12/09 09:04:41;;;;;;;198.07;30.58;;;;;;;1.83;100.00;100910.97;5020854;28;20192;-41
2023/12/09 09:07:08;;;;;;;196.48;30.95;;;;;;;1.82;100.00;100911.88;5021077;28;20191;-39
2023/12/09 09:09:37;;;;;;;183.35;32.03;;;;;;;1.92;100.00;100915.38;5020066;28;20267;-41
2023/12/09 09:12:02;;;;;;;190.88;31.38;;;;;;;1.90;100.00;100915.38;5022481;28;20238;-42
2023/12/09 09:14:28;;;;;;;192.00;31.85;;;;;;;1.90;100.00;100918.00;5020701;28;20200;-41
2023/12/09 09:16:53;;;;;;;179.27;31.30;;;;;;;1.96;100.00;100922.41;5022392;28;20238;-43
2023/12/09 09:19:20;;;;;;;196.90;31.15;;;;;;;1.92;100.00;100921.53;5020943;28;20625;-42
2023/12/09 09:21:45;;;;;;;180.50;29.98;;;;;;;1.96;100.00;100930.34;5020435;28;20291;-42
2023/12/09 09:24:11;;;;;;;153.93;31.05;;;;;;;1.99;100.00;100928.59;5020947;28;20216;-43
2023/12/09 09:26:36;;;;;;;181.55;30.48;;;;;;;2.00;100.00;100916.25;5019617;28;20189;-41
2023/12/09 09:29:02;;;;;;;182.07;31.42;;;;;;;2.00;100.00;100914.47;5024035;28;20698;-41
2023/12/09 09:31:28;;;;;;;184.38;30.75;;;;;;;2.03;100.00;100922.41;5013677;28;20288;-40
2023/12/09 09:33:53;;;;;;;152.65;31.05;;;;;;;2.09;100.00;100915.34;5018529;28;20242;-40
2023/12/09 09:36:20;;;;;;;167.45;31.63;;;;;;;2.03;100.00;100909.19;5021956;28;20192;-44
2023/12/09 09:38:47;;;;;;;150.20;29.73;;;;;;;2.09;100.00;100920.63;5026840;28;20192;-42
2023/12/09 09:41:21;;;;;;;175.77;31.17;;;;;;;2.16;100.00;100917.09;5001517;28;20196;-42
2023/12/09 09:43:52;;;;;;;159.65;31.92;;;;;;;2.19;100.00;100904.75;5020350;28;20195;-42
2023/12/09 09:46:20;;;;;;;148.13;30.30;;;;;;;2.23;100.00;100898.59;5020264;28;20181;-41
2023/12/09 09:48:50;;;;;;;154.93;30.10;;;;;;;2.25;100.00;100888.88;5018364;28;20237;-39
2023/12/09 09:51:26;;;;;;;147.52;31.92;;;;;;;2.29;100.00;100897.66;5021581;28;20295;-41
2023/12/09 09:54:10;;;;;;;163.73;31.38;;;;;;;2.26;100.00;100908.25;5022420;28;20742;-40
2023/12/09 09:56:35;;;;;;;150.05;30.58;;;;;;;2.29;100.00;100897.66;5024020;28;20265;-41
2023/12/09 09:59:03;;;;;;;152.52;30.92;;;;;;;2.28;100.00;100898.56;5022014;28;20272;-41
2023/12/09 10:01:29;;;;;;;154.10;31.42;;;;;;;2.32;100.00;100889.75;5017709;28;20214;-41
2023/12/09 10:03:55;;;;;;;160.02;31.48;;;;;;;2.31;100.00;100889.72;5021755;28;20184;-38
2023/12/09 10:06:24;;;;;;;152.60;31.38;;;;;;;2.34;100.00;100889.72;5019292;28;20251;-43
2023/12/09 10:08:49;;;;;;;155.63;31.55;;;;;;;2.32;100.00;100889.75;5019516;28;20654;-41
2023/12/09 10:11:15;;;;;;;154.10;30.95;;;;;;;2.34;100.00;100889.72;5020618;28;20212;-42
2023/12/09 10:13:43;;;;;;;165.30;31.85;;;;;;;2.36;100.00;100877.38;5018115;28;20268;-42
2023/12/09 10:16:09;;;;;;;158.82;32.22;;;;;;;2.40;100.00;100885.28;5020557;28;20231;-40
2023/12/09 10:18:35;;;;;;;158.63;31.80;;;;;;;2.36;100.00;100872.97;5021942;28;20223;-41
2023/12/09 10:21:00;;;;;;;158.07;32.72;;;;;;;2.37;100.00;100874.72;5019054;28;20208;-42
2023/12/09 10:23:26;;;;;;;155.70;32.38;;;;;;;2.37;100.00;100880.00;5017723;28;20192;-42
2023/12/09 10:25:52;;;;;;;144.95;30.70;;;;;;;2.39;100.00;100878.25;5022463;28;20192;-42
2023/12/09 10:28:19;;;;;;;153.93;33.00;;;;;;;2.54;100.00;100885.25;5003176;28;20218;-43
2023/12/09 10:30:45;;;;;;;160.70;33.15;;;;;;;2.45;100.00;100872.94;5006404;28;20244;-43
2023/12/09 10:33:11;;;;;;;153.55;32.17;;;;;;;2.45;100.00;100866.78;5025665;28;20191;-44
2023/12/09 10:35:38;;;;;;;160.48;34.25;;;;;;;2.46;100.00;100871.16;5022252;28;20187;-42
2023/12/09 10:38:04;;;;;;;164.70;32.47;;;;;;;2.44;100.00;100863.22;5012233;28;20192;-43
2023/12/09 10:40:32;;;;;;;146.30;33.70;;;;;;;2.46;100.00;100863.22;5011022;28;20199;-41
2023/12/09 10:42:57;;;;;;;151.77;33.95;;;;;;;2.47;100.00;100857.94;5021431;28;20199;-39
2023/12/09 10:45:23;;;;;;;164.73;33.92;;;;;;;2.47;100.00;100834.16;5020516;28;20211;-41
2023/12/09 10:47:48;;;;;;;147.55;31.35;;;;;;;2.47;100.00;100847.38;5016621;28;20275;-43
2023/12/09 10:50:14;;;;;;;159.88;32.97;;;;;;;2.42;100.00;100841.19;5022987;28;20212;-42
2023/12/09 10:52:40;;;;;;;147.80;32.30;;;;;;;2.42;100.00;100842.97;5019281;28;20185;-46
2023/12/09 10:55:06;;;;;;;157.25;35.88;;;;;;;2.43;100.00;100823.59;5022135;28;20180;-42
2023/12/09 10:57:33;;;;;;;134.63;32.38;;;;;;;2.46;100.00;100827.09;5021766;28;20604;-43